Hoosier Classic - Inventory Old Bird

Station: INVENTORY - T Race

Distance: 10 Miles

Release: 20-Jan-2018 12:00

Weather Release:    Arrival:

Wind at Release:     Wind at Arrival:

Temp at Release: °    Temp at Arrival: °

Lofts: 94

Birds: 317

Clocked: 317

Good Luck to Everyone!
Drops Pos Breeder Pigeon Name Color Sex Ent Arrival Speed To Win Eligible BronzeSilverGoldPlatinum
201 Rpm Syndicate - ON 0103-IF17-BUFF BB C 4 12:25:41.60 685.003 00:06:43 Yes
202 Ganus Family Loft - IN 0731-AU17-GFL STOCK MARKET BB H 10 12:25:42.10 684.780 00:06:43 Yes
202 Tegan Bogoslawski - IN 0098-AU17-ANDY BSP H 9 12:25:42.10 684.780 00:06:43 Yes
204 Andy Skwiat - IN 17117-AU17-TWOB BSWF C 5 12:25:42.50 684.603 00:06:44 Yes
205 Schillings - IN 0868-AU17-BFS Big John BB C 3 12:25:43.30 684.248 00:06:44 Yes
206 Stephen Brothers - FL 0728-AU17-COM BB H 2 12:25:45.00 683.495 00:06:46 Yes
207 Hylek Loft - IN 0301-AU17-MICH BB C 4 12:25:46.00 683.053 00:06:47 Yes
208 Tyler Shupe - IN 0017-AU17-TYLE BWF H 3 12:25:47.10 682.567 00:06:48 Yes
209 Max - CA 0910-AU17-MAX BSP C 3 12:25:48.00 682.171 00:06:49 Yes
210 Malloy Flying Loft - TX 0118-AU17-MALL BB H 2 12:25:50.70 680.983 00:06:52 Yes
211 Upper Canada Loft - ON 2851-CU17-MISS Cigar Cock x Marshmallow BB H 2 12:25:52.40 680.237 00:06:53 Yes
212 F T L Loft - IN 13872-AU17-AA BB H 10 12:25:53.10 679.930 00:06:54 Yes
213 Hylek Loft - IN 0319-AU17-MICH BSP H 5 12:25:54.80 679.187 00:06:56 Yes
214 Tyler Shupe - IN 0015-AU17-TYLE BB C 4 12:25:55.30 678.969 00:06:56 Yes
215 Tegan Bogoslawski - IN 0065-AU17-ANDY BB H 10 12:25:55.80 678.750 00:06:57 Yes
216 America\'s Dream Loft - IL 0068-AU17-ADL BB C 4 12:25:56.30 678.532 00:06:57 Yes
217 Sandstrom Brothers Loft - MN 0723-AU17-SBL BCPD H 2 12:25:56.70 678.358 00:06:58 Yes
218 Stevens Family Loft - IL 0018-AU17-MRPC BCH C 3 12:25:57.10 678.184 00:06:58 Yes
219 Twin Loft - FL 0590-AU17-HRPC BB H 2 12:25:57.20 678.140 00:06:58 Yes
220 Hillside Loft - ME 17049-AU17-AGD Oumuamua BB C 3 12:25:59.00 677.357 00:07:00 Yes
221 Mesopotamia Loft - MN 5332-AU17-VK BWF H 4 12:26:00.40 676.750 00:07:01 Missing
222 Book & Van Wingerden - AZ 7017-AU17-BOOK VM Flying Fortress BB C 10 12:26:02.40 675.883 00:07:04 Yes
223 Hylek Loft - IN 0318-AU17-MICH BB C 6 12:26:04.10 675.149 00:07:05 Yes
224 Andy Skwiat - IN 0055-AU17-ANDY BSP H 10 12:26:07.00 673.899 00:07:08 Yes
225 Dickson Loft - OK 7026-AU17-ARKO BB H 1 12:26:07.70 673.598 00:07:09 Yes
226 Twin Loft - FL 0589-AU17-HRPC BCH H 3 12:26:08.60 673.212 00:07:10 Yes
227 Schillings - IN 0869-AU17-BFS Tommy RCH C 4 12:26:10.50 672.397 00:07:12 Yes
228 Floden Lofts - KY 5055-AU17-VK GRIZ H 2 12:26:12.50 671.542 00:07:14 Yes
229 Daehn/Miele - FL 0240-AU17-NWFI 217 X 588 BPD H 6 12:26:22.50 667.299 00:07:24 Yes
230 Aubrina & Pappy - IN 0931-AU17-VK DCSP H 7 12:26:24.30 666.540 00:07:25 Yes
231 Jones Family Loft - TX 0742-AU17-KJ BCH H 2 12:26:25.90 665.868 00:07:27 Yes
232 H & H Loft - TX 6914-AU17-VK BWF C 8 12:26:27.20 665.323 00:07:28 Yes
233 Shang N Dennis Yoh - CA 2300-AU17-JEDD Sweet Caroline BBWF C 1 12:26:31.70 663.442 00:07:33 Yes
234 Hylek Loft - IN 0304-AU17-MICH BB C 7 12:26:39.20 660.330 00:07:40 Yes
235 Rpm Syndicate - ON 0104-IF17-BUFF BB C 5 12:26:44.70 658.067 00:07:46 Yes
236 Mayr Loft - NY 4049-AU17-BISO BB C 1 12:26:46.80 657.207 00:07:48 Yes
237 Minnuies Family Loft - NJ 1552-IF17-BSC Right time BB C 1 12:26:49.80 655.982 00:07:51 Yes
238 Dos Hermano & Yosellaj Loft - FL 4413-AU17-HRPC !My Dream! BB C 2 12:26:59.50 652.053 00:08:01 Yes
239 Mc Laughlin Lofts - MA 1038-AU17-MCLO BB H 2 12:27:06.70 649.167 00:08:08 Yes
240 Sandstrom Brothers Loft - MN 0733-AU17-SBL CHWF H 3 12:27:09.50 648.052 00:08:11 Yes
241 Bodzianowski Loft - IL 1562-AU17-WRC BCH C 3 12:27:10.90 647.495 00:08:12 Yes
242 Rpm Syndicate - ON 0127-IF17-BUFF BWF H 6 12:27:13.80 646.346 00:08:15 Yes
243 Bird Dog Syndicate 2 - CA 0028-AU17-BURG BCH H 2 12:27:23.40 642.570 00:08:25 Yes
244 Stevens Family Loft - IL 0033-AU17-MRPC GRIZ C 4 12:27:24.20 642.258 00:08:25 Yes
245 Malloy Flying Loft - TX 0131-AU17-MALL BB H 3 12:27:31.90 639.264 00:08:33 Yes
246 Deceased Fame - CA 25218-AU17-ARPU All - A - Loan CHWF H 1 12:27:33.90 638.491 00:08:35 Yes
247 Bill Kluge - TX 1725-AU17-COLD 30 BCH C 2 12:27:38.30 636.797 00:08:39 Yes
248 Richard Callahan - MO 1606-AU17-AA BB C 1 12:27:39.70 636.260 00:08:41 Yes
249 Aztec Loft - DE 0274-AU17-AZTE Lola BSP H 4 12:27:43.80 634.692 00:08:45 Yes
250 Hwy 51 Loft - OK 0771-AU17-HWY BB C 2 12:28:30.80 617.255 00:09:32 Yes
251 America\'s Dream Loft - IL 0032-AU17-ADL RCH C 5 12:28:31.20 617.111 00:09:32 Yes
252 F T L Loft - IN 0037-AU17-HUTC BB H 11 12:28:37.60 614.811 00:09:39 Yes
253 Book & Van Wingerden - AZ 7001-AU17-BOOK Wacko's Boardwalk BB C 11 12:28:39.30 614.203 00:09:40 Yes
254 A F L - GA 0155-AU17-AFL ,,SAMANTHA'' BB H 3 12:28:43.70 612.636 00:09:45 Yes
255 777-Loft - MN 0203-AU17-SPR Next Jen BCWF H 3 12:28:53.40 609.207 00:09:55 Yes
256 Bird Dog Syndicate 2 - CA 0009-AU17-BURG CHWF H 3 12:30:38.80 574.288 00:11:40 Yes
257 Aubrina & Pappy - IN 0912-AU17-VK BSP H 8 12:31:51.70 552.388 00:12:53 Yes
258 John Fukumoto - HI 0313-AU17-HAWN BB H 2 12:34:19.40 512.771 00:15:20 Yes
259 Kowkow Family Loft - FL 0280-AU17-BFS BWF H 2 12:34:21.30 512.298 00:15:22 Yes
260 Floden/Graham Lofts - KY 5102-AU17-VK Caboose BB H 1 12:34:45.90 506.256 00:15:47 Yes
261 Twin Loft - FL 0595-AU17-BLES BB C 4 12:38:40.80 455.016 00:19:42 Yes
262 Furlano & Rotiroti - ON 3396-CU17-LAKE BWF C 3 12:41:41.80 422.096 00:22:43 Yes
263 Mc Laughlin Lofts - MA 1023-AU17-MCLO BCH H 3 12:43:42.80 402.623 00:24:44 Yes
264 F T L Loft - IN 0036-AU17-HUTC BB C 12 12:45:48.60 384.196 00:26:50 Yes
265 Avalos Loft - CA 1607-AU17-TULE BCH H 2 12:52:57.10 332.379 00:33:58 Yes
266 A D L Sheila - IL 0103-AU17-ADL DCH C 4 12:55:11.50 318.889 00:36:13 Yes
267 Macken/Zittler - MN 0628-AU17-MACK WHIT C 2 12:56:25.60 311.909 00:37:27 Yes
268 Loft By Augustine - KS 7339-AU17-SWK DCH H 2 13:09:20.10 253.840 00:50:21 Missing
269 Andy Skwiat - IN 0773-AU17-GONZ BB H 1 13:19:44.70 220.703 01:00:46 Yes
270 Van Den Bossche Brothers - ME 4426-AU17-VK Thunder Bolt BB H 2 13:19:45.40 220.671 01:00:47 Yes
271 Cicio\'s Loft - IL 0172-AU17-CICI BCH C 1 13:19:45.50 220.667 01:00:47 Yes
272 Gene Tenbrink - CA 0329-AU17-GENT BCH C 3 13:19:53.70 220.289 01:00:55 Yes
273 Twin Loft - FL 4415-AU17-VK BB H 4 13:20:02.90 219.867 01:01:04 Yes
273 Andy Skwiat - IN 0034-IF17-MDL Going the distance BB C 5 13:20:02.90 219.867 01:01:04 Yes
275 Alca Girls - IL 0875-AU17-RRV Midnight Rambler BCH C 6 13:20:14.00 219.360 01:01:15 Yes
276 Andy Skwiat - IN 8821-AU17-KV BB H 7 13:20:23.20 218.942 01:01:24 Yes
277 Cicio\'s Loft - IL 0196-AU17-CICI BCH C 2 13:20:38.70 218.240 01:01:40 Yes
278 Van Den Bossche Brothers - ME 0872-AU17-RRV Top Dog BB C 8 13:20:44.10 217.997 01:01:45 Yes
279 Andy Skwiat - IN 0145-AU17-OAKS BCH H 9 13:20:47.20 217.858 01:01:48 Yes
280 Utaz Team - UT 0934-AU17-PSC BB H 10 13:21:32.10 215.858 01:02:33 Yes
281 Andy Skwiat - IN 4502-AU17-CBBR DCH H 11 13:21:38.90 215.559 01:02:40 Missing
282 Andy Skwiat - IN 0078-CU17-SILV DCH H 12 13:21:45.20 215.282 01:02:46 Yes
283 Andy Skwiat - IN 14292-AU17-ARPU BCH H 13 13:22:05.30 214.403 01:03:06 Yes
284 Andy Skwiat - IN 0788-AU17-GONZ BB H 14 13:22:10.80 214.164 01:03:12 Yes
285 Andy Skwiat - IN 0601-AU17-LCC BB H 15 13:22:21.70 213.692 01:03:23 Yes
286 Hillside Loft - ME 60151-AU17-ARPU Excalibur BB H 16 13:22:24.50 213.571 01:03:26 Yes
287 Van Den Bossche Brothers - ME 0315-AU17-GENT Super Moon BCH C 17 13:22:29.30 213.364 01:03:30 Yes
288 Andy Skwiat - IN 30013-AU17-ARPU BB H 18 13:22:37.30 213.019 01:03:38 Yes
289 Cicio\'s Loft - IL 0183-AU17-CICI BPD H 3 13:22:43.30 212.762 01:03:44 Yes
290 Andy Skwiat - IN 17124-AU17-TWOB BB C 19 13:22:58.20 212.125 01:03:59 Yes
291 Hillside Loft - ME 0311-AU17-GENT Blue Moon DCH H 20 13:23:10.80 211.589 01:04:12 Yes
292 Andy Skwiat - IN 0133-AU17-LING BB H 21 13:23:22.30 211.103 01:04:23 Yes
293 Not Eligible - IL Disqualified 4 13:23:28.00 210.863 01:04:29 No
294 Andy Skwiat - IN 5049-AU17-TONY BCH C 22 13:23:29.80 210.787 01:04:31 Yes
295 Twin Loft - FL 18722-AU17-ARPU BCH H 23 13:23:43.00 210.233 01:04:44 Yes
296 Andy Skwiat - IN 0401-AU17-SLL BB C 24 13:23:47.50 210.045 01:04:49 Yes
297 Andy Skwiat - IN 0027-AU17-REDT RCPD H 25 13:23:48.00 210.024 01:04:49 Yes
298 Van Den Bossche Brothers - ME 0886-AU17-RRV Rascal BB C 26 13:24:23.30 208.560 01:05:24 Yes
299 Andy Skwiat - IN 2258-AU17-SCHE DCH H 27 13:25:38.20 205.519 01:06:39 Yes
300 Columbus & Cicio - IL 0177-AU17-CICI BCH H 1 13:26:20.10 203.857 01:07:21 Yes

There are 323 bird records

Note: These Race Results are unofficial and subject to change until verified by the Race Committee and declared final.